Time;durP1;ratioP1;P1;durP2;ratioP2;P2;SDS_P1;SDS_P2;PMS_P1;PMS_P2;Temp;Humidity;BMP_temperature;BMP_pressure;BME280_temperature;BME280_humidity;BME280_pressure;Samples;Min_cycle;Max_cycle;Signal;HPM_P1;HPM_P2
2023/12/02 00:00:02;;;;;;;1.02;1.02;;;;;;;-1.31;100.00;94361.81;1027075;28;20019;-80
2023/12/02 00:00:33;;;;;;;0.98;0.90;;;;;;;-1.33;100.00;94357.88;1027120;28;20486;-78
2023/12/02 00:01:04;;;;;;;0.45;0.45;;;;;;;-1.49;100.00;94329.22;1027384;28;20337;-80
2023/12/02 00:01:34;;;;;;;0.73;0.73;;;;;;;-1.29;100.00;94359.00;1035754;28;20014;-80
2023/12/02 00:02:05;;;;;;;1.40;0.68;;;;;;;-1.31;100.00;94361.81;1034592;28;20448;-81
2023/12/02 00:02:35;;;;;;;1.13;1.02;;;;;;;-1.31;100.00;94363.56;1039697;28;20036;-80
2023/12/02 00:03:06;;;;;;;0.88;0.88;;;;;;;-1.35;100.00;94363.22;1034834;28;20339;-80
2023/12/02 00:03:36;;;;;;;1.45;1.10;;;;;;;-1.37;100.00;94367.06;1035348;28;20084;-78
2023/12/02 00:04:07;;;;;;;1.75;1.65;;;;;;;-1.40;100.00;94345.13;1043218;28;20035;-80
2023/12/02 00:04:37;;;;;;;1.13;1.10;;;;;;;-1.40;100.00;94355.41;1035268;28;20048;-80
2023/12/02 00:05:08;;;;;;;1.48;1.45;;;;;;;-1.34;100.00;94354.53;1039011;28;20033;-80
2023/12/02 00:05:38;;;;;;;0.47;0.47;;;;;;;-1.41;100.00;94348.69;1043923;28;20085;-81
2023/12/02 00:06:09;;;;;;;3.67;2.90;;;;;;;-1.31;100.00;94355.84;1039187;28;20579;-79
2023/12/02 00:06:40;;;;;;;1.02;0.95;;;;;;;-1.35;100.00;94358.09;1035126;28;20576;-80
2023/12/02 00:07:10;;;;;;;1.65;0.95;;;;;;;-1.41;100.00;94343.53;1039208;28;20508;-79
2023/12/02 00:07:41;;;;;;;1.65;1.35;;;;;;;-1.30;100.00;94360.78;1035287;28;20025;-79
2023/12/02 00:08:11;;;;;;;0.47;0.47;;;;;;;-1.26;100.00;94356.75;1027184;28;20234;-77
2023/12/02 00:08:42;;;;;;;0.63;0.63;;;;;;;-1.31;100.00;94361.81;1027230;28;20600;-79
2023/12/02 00:09:12;;;;;;;1.35;0.90;;;;;;;-1.27;100.00;94360.34;1035259;28;20024;-81
2023/12/02 00:09:43;;;;;;;0.98;0.98;;;;;;;-1.32;100.00;94359.44;1036062;28;20018;-79
2023/12/02 00:10:13;;;;;;;0.43;0.40;;;;;;;-1.39;100.00;94358.75;1039482;28;20014;-80
2023/12/02 00:10:44;;;;;;;3.40;3.10;;;;;;;-1.48;100.00;94350.56;1033614;28;20023;-81
2023/12/02 00:11:15;;;;;;;0.44;0.44;;;;;;;-1.41;100.00;94348.69;1047786;28;20076;-79
2023/12/02 00:11:51;;;;;;;0.35;0.20;;;;;;;-1.35;100.00;94365.81;1031011;28;20034;-78
2023/12/02 00:12:22;;;;;;;0.80;0.80;;;;;;;-1.37;100.00;94357.53;1024890;28;20027;-80
2023/12/02 00:12:52;;;;;;;4.03;1.25;;;;;;;-1.36;100.00;94363.47;1032118;28;20022;-81
2023/12/02 00:13:24;;;;;;;0.38;0.38;;;;;;;-1.55;100.00;94344.75;1035064;28;20022;-81
2023/12/02 00:13:54;;;;;;;1.58;1.48;;;;;;;-1.47;100.00;94354.72;1040020;28;20051;-81
2023/12/02 00:14:25;;;;;;;0.68;0.57;;;;;;;-1.49;100.00;94351.59;1034691;28;20026;-80
2023/12/02 00:14:55;;;;;;;0.82;0.82;;;;;;;-1.37;100.00;94361.91;1042059;28;20515;-80
2023/12/02 00:15:26;;;;;;;0.45;0.45;;;;;;;-1.36;100.00;94356.53;1035132;28;20528;-80
2023/12/02 00:15:56;;;;;;;1.20;1.20;;;;;;;-1.49;100.00;94341.28;1030957;28;20018;-81
2023/12/02 00:16:27;;;;;;;1.35;1.25;;;;;;;-1.38;100.00;94368.81;1043503;28;20082;-79
2023/12/02 00:16:57;;;;;;;0.43;0.43;;;;;;;-1.35;100.00;94373.53;1039250;28;20025;-80
2023/12/02 00:17:28;;;;;;;1.88;0.65;;;;;;;-1.37;100.00;94370.41;1041081;28;20472;-80
2023/12/02 00:17:58;;;;;;;0.85;0.85;;;;;;;-1.42;100.00;94357.41;1043259;28;20047;-79
2023/12/02 00:18:29;;;;;;;1.13;1.13;;;;;;;-1.33;100.00;94375.88;1036064;28;20018;-78
2023/12/02 00:18:59;;;;;;;0.50;0.50;;;;;;;-1.32;100.00;94378.22;1039898;28;20021;-80
2023/12/02 00:19:29;;;;;;;0.80;0.80;;;;;;;-1.43;100.00;94372.06;1047322;28;20484;-80
2023/12/02 00:20:00;;;;;;;3.42;2.05;;;;;;;-1.36;100.00;94374.53;1033752;28;20426;-81
2023/12/02 00:20:31;;;;;;;1.73;1.63;;;;;;;-1.59;100.00;94341.06;1027396;28;20027;-77
2023/12/02 00:21:01;;;;;;;0.25;0.25;;;;;;;-1.44;100.00;94369.72;1030993;28;20034;-79
2023/12/02 00:21:32;;;;;;;1.42;1.33;;;;;;;-1.45;100.00;94365.56;1034927;28;20160;-80
2023/12/02 00:22:04;;;;;;;0.45;0.45;;;;;;;-1.39;100.00;94369.84;1030748;28;20562;-81
2023/12/02 00:22:35;;;;;;;0.40;0.40;;;;;;;-1.40;100.00;94370.06;1045263;28;20108;-81
2023/12/02 00:23:05;;;;;;;0.32;0.32;;;;;;;-1.44;100.00;94369.72;1039031;28;20017;-81
2023/12/02 00:23:36;;;;;;;2.97;2.75;;;;;;;-1.42;100.00;94370.28;1029599;28;20054;-80
2023/12/02 00:24:06;;;;;;;2.75;1.85;;;;;;;-1.41;100.00;94366.69;1031357;28;20033;-81
2023/12/02 00:24:37;;;;;;;1.05;1.05;;;;;;;-1.37;100.00;94365.25;1039044;28;20124;-81
2023/12/02 00:25:08;;;;;;;0.95;0.95;;;;;;;-1.37;100.00;94360.13;1041342;28;20319;-80
2023/12/02 00:25:38;;;;;;;0.90;0.90;;;;;;;-1.44;100.00;94360.22;1030837;28;20026;-79
2023/12/02 00:26:10;;;;;;;1.35;1.00;;;;;;;-1.46;100.00;94356.28;1033817;28;20122;-80
2023/12/02 00:26:40;;;;;;;0.84;0.50;;;;;;;-1.43;100.00;94361.00;1026530;28;20026;-81
2023/12/02 00:27:11;;;;;;;1.40;1.30;;;;;;;-1.43;100.00;94368.72;1039075;28;20446;-81
2023/12/02 00:27:41;;;;;;;0.52;0.52;;;;;;;-1.46;100.00;94361.44;1030957;28;20498;-80
2023/12/02 00:28:12;;;;;;;0.80;0.50;;;;;;;-1.56;100.00;94340.63;1030900;28;20121;-80
2023/12/02 00:28:42;;;;;;;1.88;1.77;;;;;;;-1.40;100.00;94359.78;1032200;28;20029;-81
2023/12/02 00:29:14;;;;;;;1.38;1.13;;;;;;;-1.51;100.00;94356.16;1039350;28;20454;-80
2023/12/02 00:29:44;;;;;;;1.24;1.08;;;;;;;-1.44;100.00;94359.44;1030734;28;20018;-80
2023/12/02 00:30:15;;;;;;;0.50;0.50;;;;;;;-1.46;100.00;94366.59;1029465;28;20058;-80
2023/12/02 00:30:45;;;;;;;0.63;0.63;;;;;;;-1.42;100.00;94368.47;1034773;28;20024;-78
2023/12/02 00:31:16;;;;;;;0.43;0.43;;;;;;;-1.43;100.00;94361.00;1042952;28;20020;-80
2023/12/02 00:31:47;;;;;;;1.67;1.55;;;;;;;-1.53;100.00;94351.25;1030118;28;20030;-80
2023/12/02 00:32:17;;;;;;;0.50;0.50;;;;;;;-1.46;100.00;94356.28;1031089;28;20030;-81
2023/12/02 00:32:48;;;;;;;0.55;0.55;;;;;;;-1.42;100.00;94370.28;1037136;28;20686;-80
2023/12/02 00:33:18;;;;;;;1.98;1.83;;;;;;;-1.48;100.00;94358.28;1038739;28;20029;-80
2023/12/02 00:33:49;;;;;;;1.13;1.13;;;;;;;-1.53;100.00;94356.38;1042094;28;20036;-81
2023/12/02 00:34:19;;;;;;;0.68;0.68;;;;;;;-1.53;100.00;94363.31;1023920;28;20019;-81
2023/12/02 00:34:49;;;;;;;1.27;1.17;;;;;;;-1.52;100.00;94365.66;1030816;28;20187;-81
2023/12/02 00:35:20;;;;;;;1.67;0.77;;;;;;;-1.49;100.00;94367.78;1043362;28;20741;-82
2023/12/02 00:35:50;;;;;;;1.05;1.02;;;;;;;-1.56;100.00;94361.19;1045976;28;20094;-81
2023/12/02 00:36:21;;;;;;;0.75;0.75;;;;;;;-1.50;100.00;94373.19;1036206;28;20052;-80
2023/12/02 00:36:51;;;;;;;2.92;2.67;;;;;;;-1.47;100.00;94376.09;1037717;28;20286;-81
2023/12/02 00:37:22;;;;;;;1.05;1.00;;;;;;;-1.56;100.00;94359.41;1025142;28;20034;-80
2023/12/02 00:37:52;;;;;;;2.53;1.10;;;;;;;-1.58;100.00;94366.53;1034591;28;20037;-81
2023/12/02 00:38:23;;;;;;;1.25;1.23;;;;;;;-1.53;100.00;94369.25;1035738;28;20033;-80
2023/12/02 00:38:53;;;;;;;1.50;1.40;;;;;;;-1.49;100.00;94377.31;1029033;28;20027;-81
2023/12/02 00:39:23;;;;;;;0.57;0.57;;;;;;;-1.57;100.00;94375.84;1032213;28;20069;-81
2023/12/02 00:39:54;;;;;;;0.47;0.47;;;;;;;-1.55;100.00;94373.81;1039723;28;20017;-81
2023/12/02 00:40:24;;;;;;;2.03;0.95;;;;;;;-1.52;100.00;94375.94;1034271;28;20072;-78
2023/12/02 00:40:55;;;;;;;1.55;1.45;;;;;;;-1.51;100.00;94379.31;1039801;28;20025;-81
2023/12/02 00:41:25;;;;;;;0.30;0.30;;;;;;;-1.62;100.00;94357.72;1038035;28;20021;-80
2023/12/02 00:41:56;;;;;;;0.40;0.40;;;;;;;-1.54;100.00;94369.47;1038174;28;20449;-80
2023/12/02 00:42:26;;;;;;;2.45;1.75;;;;;;;-1.50;100.00;94365.47;1034843;28;20077;-78
2023/12/02 00:42:57;;;;;;;1.35;1.10;;;;;;;-1.66;100.00;94341.94;1034913;28;20064;-81
2023/12/02 00:43:27;;;;;;;0.50;0.50;;;;;;;-1.51;100.00;94363.88;1046731;28;20023;-81
2023/12/02 00:43:58;;;;;;;1.15;1.15;;;;;;;-1.48;100.00;94360.84;1028384;28;20018;-81
2023/12/02 00:44:28;;;;;;;1.85;1.35;;;;;;;-1.57;100.00;94350.13;1035148;28;20048;-80
2023/12/02 00:44:59;;;;;;;0.50;0.50;;;;;;;-1.48;100.00;94366.78;1027114;28;20052;-80
2023/12/02 00:45:29;;;;;;;1.85;1.10;;;;;;;-1.49;100.00;94364.44;1033019;28;20033;-79
2023/12/02 00:45:59;;;;;;;0.00;0.00;;;;;;;-1.55;100.00;94360.19;1034802;28;20068;-78
2023/12/02 00:46:30;;;;;;;1.33;1.23;;;;;;;-1.47;100.00;94376.09;1035004;28;20235;-80
2023/12/02 00:47:00;;;;;;;0.77;0.77;;;;;;;-1.70;100.00;94340.81;1022844;29;20041;-81
2023/12/02 00:47:31;;;;;;;3.72;1.95;;;;;;;-1.51;100.00;94374.16;1030520;28;20018;-79
2023/12/02 00:48:01;;;;;;;1.88;1.10;;;;;;;-1.53;100.00;94374.41;1036638;28;20026;-81
2023/12/02 00:48:32;;;;;;;2.22;2.10;;;;;;;-1.53;100.00;94378.75;1043044;28;20053;-80
2023/12/02 00:49:02;;;;;;;0.40;0.40;;;;;;;-1.70;100.00;94350.31;1037022;28;20091;-80
2023/12/02 00:49:33;;;;;;;2.17;1.38;;;;;;;-1.53;100.00;94379.53;1030647;28;20018;-81
2023/12/02 00:50:03;;;;;;;2.83;1.15;;;;;;;-1.52;100.00;94375.16;1030494;28;20471;-78
2023/12/02 00:50:34;;;;;;;1.55;1.33;;;;;;;-1.56;100.00;94371.47;1035302;28;20018;-80
2023/12/02 00:51:05;;;;;;;2.75;1.42;;;;;;;-1.62;100.00;94357.72;1030822;28;20034;-81
2023/12/02 00:51:35;;;;;;;1.55;1.45;;;;;;;-1.56;100.00;94369.69;1032510;28;20042;-79
2023/12/02 00:52:06;;;;;;;0.63;0.35;;;;;;;-1.55;100.00;94365.31;1042647;28;20025;-79
2023/12/02 00:52:36;;;;;;;2.15;1.45;;;;;;;-1.51;100.00;94366.44;1039356;28;20029;-79
2023/12/02 00:53:07;;;;;;;0.60;0.60;;;;;;;-1.56;100.00;94364.53;1026750;28;20066;-78
2023/12/02 00:53:37;;;;;;;1.63;0.77;;;;;;;-1.53;100.00;94364.09;1030749;28;20474;-80
2023/12/02 00:54:08;;;;;;;0.77;0.77;;;;;;;-1.56;100.00;94371.47;1042913;28;20051;-80
2023/12/02 00:54:38;;;;;;;0.85;0.85;;;;;;;-1.57;100.00;94364.78;1043018;28;20476;-80
2023/12/02 00:55:08;;;;;;;0.90;0.90;;;;;;;-1.51;100.00;94374.16;1038801;28;20021;-80
2023/12/02 00:55:39;;;;;;;3.40;2.40;;;;;;;-1.59;100.00;94357.28;1034733;28;20037;-80
2023/12/02 00:56:10;;;;;;;1.35;1.25;;;;;;;-1.56;100.00;94356.84;1039298;28;20476;-78
2023/12/02 00:56:40;;;;;;;1.85;1.42;;;;;;;-1.52;100.00;94370.03;1032420;28;20029;-80
2023/12/02 00:57:11;;;;;;;1.98;1.85;;;;;;;-1.51;100.00;94374.97;1035594;28;20029;-80
2023/12/02 00:57:41;;;;;;;1.55;1.45;;;;;;;-1.51;100.00;94372.41;1035466;28;20021;-79
2023/12/02 00:58:12;;;;;;;1.83;1.55;;;;;;;-1.51;100.00;94369.81;1036071;28;20061;-80
2023/12/02 00:58:42;;;;;;;1.73;1.63;;;;;;;-1.46;100.00;94380.22;1029624;28;20018;-79
2023/12/02 00:59:13;;;;;;;1.75;1.40;;;;;;;-1.54;100.00;94369.47;1035067;28;20162;-81
2023/12/02 00:59:43;;;;;;;2.17;1.25;;;;;;;-1.57;100.00;94363.00;1030947;28;20025;-80
2023/12/02 01:00:15;;;;;;;1.85;1.70;;;;;;;-1.47;100.00;94383.03;1039176;28;20381;-80
2023/12/02 01:00:45;;;;;;;1.86;1.76;;;;;;;-1.49;100.00;94377.31;1026700;28;20023;-80
2023/12/02 01:01:16;;;;;;;0.35;0.35;;;;;;;-1.53;100.00;94365.91;1023775;28;20404;-80
2023/12/02 01:01:46;;;;;;;0.25;0.25;;;;;;;-1.52;100.00;94388.03;1030202;28;20038;-81
2023/12/02 01:02:17;;;;;;;1.70;1.38;;;;;;;-1.52;100.00;94385.47;1029306;28;20022;-80
2023/12/02 01:02:47;;;;;;;2.72;2.55;;;;;;;-1.60;100.00;94380.66;1030995;28;20023;-81
2023/12/02 01:03:18;;;;;;;6.95;0.98;;;;;;;-1.78;100.00;94359.13;1030852;28;20077;-80
2023/12/02 01:03:48;;;;;;;0.80;0.80;;;;;;;-1.60;100.00;94371.13;1035136;28;20486;-79
2023/12/02 01:04:19;;;;;;;0.98;0.65;;;;;;;-1.55;100.00;94378.19;1035035;28;20045;-79
2023/12/02 01:04:49;;;;;;;0.85;0.82;;;;;;;-1.56;100.00;94379.97;1034913;28;20025;-79
2023/12/02 01:05:20;;;;;;;0.57;0.52;;;;;;;-1.57;100.00;94375.06;1027162;28;20018;-78
2023/12/02 01:05:50;;;;;;;0.90;0.90;;;;;;;-1.56;100.00;94369.69;1034744;28;20083;-78
2023/12/02 01:06:21;;;;;;;0.50;0.50;;;;;;;-1.48;100.00;94378.88;1038865;28;20021;-80
2023/12/02 01:06:51;;;;;;;0.90;0.90;;;;;;;-1.51;100.00;94374.16;1031394;28;20027;-80
2023/12/02 01:07:22;;;;;;;0.60;0.60;;;;;;;-1.51;100.00;94374.16;1030762;28;20022;-79
2023/12/02 01:07:52;;;;;;;0.65;0.65;;;;;;;-1.53;100.00;94374.41;1031065;28;20014;-79
2023/12/02 01:08:22;;;;;;;2.55;1.85;;;;;;;-1.53;100.00;94371.03;1031205;28;20438;-79
2023/12/02 01:08:53;;;;;;;2.65;0.98;;;;;;;-1.53;100.00;94376.19;1034790;28;20029;-79
2023/12/02 01:09:23;;;;;;;1.60;1.50;;;;;;;-1.56;100.00;94372.25;1030698;28;20022;-81
2023/12/02 01:09:54;;;;;;;0.93;0.88;;;;;;;-1.53;100.00;94381.34;1039292;28;20075;-80
2023/12/02 01:10:24;;;;;;;0.10;0.10;;;;;;;-1.54;100.00;94390.84;1034811;28;20721;-78
2023/12/02 01:10:55;;;;;;;0.82;0.77;;;;;;;-1.52;100.00;94388.03;1026726;28;20418;-77
2023/12/02 01:11:25;;;;;;;1.40;1.30;;;;;;;-1.58;100.00;94383.75;1027122;28;20015;-80
2023/12/02 01:11:55;;;;;;;1.80;1.48;;;;;;;-1.52;100.00;94390.59;1026742;28;20018;-79
2023/12/02 01:12:26;;;;;;;1.58;1.45;;;;;;;-1.59;100.00;94395.06;1031119;28;20015;-78
2023/12/02 01:12:56;;;;;;;3.22;2.05;;;;;;;-1.57;100.00;94387.94;1038464;28;20141;-78
2023/12/02 01:13:27;;;;;;;1.13;0.82;;;;;;;-1.54;100.00;94390.03;1034917;28;20160;-79
2023/12/02 01:13:57;;;;;;;0.45;0.45;;;;;;;-1.59;100.00;94384.78;1031211;28;20573;-80
2023/12/02 01:14:28;;;;;;;0.82;0.82;;;;;;;-1.61;100.00;94394.50;1030820;28;20066;-80
2023/12/02 01:14:58;;;;;;;1.75;1.65;;;;;;;-1.62;100.00;94377.50;1030944;28;20069;-79
2023/12/02 01:15:29;;;;;;;0.98;0.98;;;;;;;-1.55;100.00;94383.31;1034882;28;20049;-80
2023/12/02 01:15:59;;;;;;;0.65;0.65;;;;;;;-1.59;100.00;94382.97;1026601;28;20022;-80
2023/12/02 01:16:30;;;;;;;0.57;0.55;;;;;;;-1.67;100.00;94366.09;1027198;28;20019;-80
2023/12/02 01:17:00;;;;;;;0.85;0.85;;;;;;;-1.60;100.00;94378.06;1030897;28;20137;-80
2023/12/02 01:17:31;;;;;;;2.30;2.10;;;;;;;-1.60;100.00;94383.22;1030931;28;20157;-79
2023/12/02 01:18:01;;;;;;;1.05;1.05;;;;;;;-1.67;100.00;94366.09;1039322;28;20026;-79
2023/12/02 01:18:32;;;;;;;1.27;1.25;;;;;;;-1.59;100.00;94382.22;1038977;28;20081;-80
2023/12/02 01:19:02;;;;;;;0.32;0.32;;;;;;;-1.68;100.00;94366.28;1038992;28;20354;-80
2023/12/02 01:19:32;;;;;;;1.33;1.13;;;;;;;-1.58;100.00;94374.25;1031026;28;20018;-81
2023/12/02 01:20:03;;;;;;;0.57;0.57;;;;;;;-1.60;100.00;94365.22;1035004;28;20041;-79
2023/12/02 01:20:33;;;;;;;1.67;1.58;;;;;;;-1.67;100.00;94366.09;1034937;28;20022;-78
2023/12/02 01:21:04;;;;;;;1.38;1.33;;;;;;;-1.56;100.00;94381.78;1030606;28;20027;-80
2023/12/02 01:21:35;;;;;;;1.40;1.33;;;;;;;-1.63;100.00;94368.22;1023085;28;20071;-80
2023/12/02 01:22:05;;;;;;;1.08;1.08;;;;;;;-1.59;100.00;94372.69;1030733;28;20031;-79
2023/12/02 01:22:35;;;;;;;0.60;0.60;;;;;;;-1.66;100.00;94361.72;1038925;28;20021;-79
2023/12/02 01:23:06;;;;;;;0.40;0.40;;;;;;;-1.55;100.00;94373.03;1030938;28;20026;-80
2023/12/02 01:23:36;;;;;;;0.63;0.40;;;;;;;-1.54;100.00;94379.75;1030857;28;20375;-80
2023/12/02 01:24:07;;;;;;;2.38;2.15;;;;;;;-1.53;100.00;94376.97;1030515;28;20029;-80
2023/12/02 01:24:38;;;;;;;0.30;0.30;;;;;;;-1.54;100.00;94374.59;1034627;28;20018;-80
2023/12/02 01:25:08;;;;;;;0.30;0.30;;;;;;;-1.55;100.00;94375.63;1026528;28;20023;-80
2023/12/02 01:25:38;;;;;;;1.63;1.45;;;;;;;-1.65;100.00;94363.28;1034805;28;20028;-80
2023/12/02 01:26:09;;;;;;;3.40;2.70;;;;;;;-1.68;100.00;94374.81;1034994;28;20556;-79
2023/12/02 01:26:39;;;;;;;2.95;0.90;;;;;;;-1.66;100.00;94365.09;1031116;28;20026;-79
2023/12/02 01:27:10;;;;;;;1.67;1.58;;;;;;;-1.63;100.00;94376.72;1030899;28;20026;-79
2023/12/02 01:27:40;;;;;;;0.55;0.55;;;;;;;-1.60;100.00;94370.38;1022817;28;20849;-78
2023/12/02 01:28:11;;;;;;;4.20;1.08;;;;;;;-1.59;100.00;94377.06;1038646;28;20022;-79
2023/12/02 01:28:41;;;;;;;1.85;1.48;;;;;;;-1.69;100.00;94368.09;1039117;28;20032;-79
2023/12/02 01:29:12;;;;;;;0.25;0.25;;;;;;;-1.65;100.00;94365.84;1031559;28;20053;-80
2023/12/02 01:29:42;;;;;;;0.95;0.90;;;;;;;-1.63;100.00;94374.16;1030665;28;20038;-77
2023/12/02 01:30:13;;;;;;;0.43;0.43;;;;;;;-1.59;100.00;94380.41;1030989;28;20027;-80
2023/12/02 01:30:43;;;;;;;1.55;1.23;;;;;;;-1.69;100.00;94373.22;1031047;28;20792;-79
2023/12/02 01:31:14;;;;;;;0.68;0.68;;;;;;;-1.69;100.00;94378.38;1031227;28;20022;-80
2023/12/02 01:31:44;;;;;;;1.02;0.98;;;;;;;-1.65;100.00;94376.16;1038465;28;20306;-79
2023/12/02 01:32:15;;;;;;;2.10;1.30;;;;;;;-1.68;100.00;94369.69;1039121;28;20021;-78
2023/12/02 01:32:45;;;;;;;0.65;0.65;;;;;;;-1.78;100.00;94364.25;1034918;28;20022;-77
2023/12/02 01:33:15;;;;;;;1.55;1.17;;;;;;;-1.64;100.00;94376.94;1034789;28;20014;-80
2023/12/02 01:33:46;;;;;;;1.25;0.93;;;;;;;-1.63;100.00;94374.16;1026928;28;20034;-79
2023/12/02 01:34:16;;;;;;;1.13;1.02;;;;;;;-1.79;100.00;94365.28;1027316;28;20030;-80
2023/12/02 01:34:47;;;;;;;0.52;0.50;;;;;;;-1.73;100.00;94372.09;1034719;28;20022;-80
2023/12/02 01:35:17;;;;;;;2.28;2.08;;;;;;;-1.74;100.00;94367.97;1043340;28;20021;-79
2023/12/02 01:35:48;;;;;;;0.43;0.43;;;;;;;-1.70;100.00;94379.38;1035050;28;20018;-79
2023/12/02 01:36:19;;;;;;;1.04;1.04;;;;;;;-1.67;100.00;94375.59;1042883;28;20361;-77
2023/12/02 01:36:49;;;;;;;1.85;1.75;;;;;;;-1.68;100.00;94372.25;1038669;28;20253;-78
2023/12/02 01:37:20;;;;;;;1.90;1.50;;;;;;;-1.66;100.00;94370.22;1031124;28;20026;-80
2023/12/02 01:37:50;;;;;;;0.43;0.40;;;;;;;-1.71;100.00;94364.16;1026794;28;20018;-80
2023/12/02 01:38:21;;;;;;;2.17;1.38;;;;;;;-1.65;100.00;94378.72;1035094;28;20022;-78
2023/12/02 01:38:51;;;;;;;0.43;0.43;;;;;;;-1.72;100.00;94375.47;1039197;28;20095;-79
2023/12/02 01:39:22;;;;;;;1.75;1.65;;;;;;;-1.67;100.00;94376.38;1030624;28;20031;-77
2023/12/02 01:39:52;;;;;;;1.08;1.08;;;;;;;-1.71;100.00;94370.13;1026993;28;20046;-78
2023/12/02 01:40:22;;;;;;;0.77;0.77;;;;;;;-1.82;100.00;94352.84;1026629;28;20641;-79
2023/12/02 01:40:53;;;;;;;1.52;1.45;;;;;;;-1.66;100.00;94367.66;1031365;28;20018;-79
2023/12/02 01:41:23;;;;;;;0.20;0.17;;;;;;;-1.69;100.00;94357.81;1038696;28;20088;-79
2023/12/02 01:41:54;;;;;;;1.15;1.05;;;;;;;-1.69;100.00;94360.38;1034287;28;20025;-78
2023/12/02 01:42:25;;;;;;;1.58;1.48;;;;;;;-1.67;100.00;94371.25;1030986;28;20026;-79
2023/12/02 01:42:55;;;;;;;0.30;0.30;;;;;;;-1.64;100.00;94369.22;1020465;28;20020;-79
2023/12/02 01:43:26;;;;;;;2.92;2.70;;;;;;;-1.67;100.00;94360.94;1027031;28;20034;-79
2023/12/02 01:43:56;;;;;;;2.45;1.55;;;;;;;-1.77;100.00;94355.56;1035233;28;20397;-79
2023/12/02 01:44:27;;;;;;;1.27;0.95;;;;;;;-1.69;100.00;94362.94;1038998;28;20032;-79
2023/12/02 01:44:58;;;;;;;0.47;0.47;;;;;;;-1.77;100.00;94365.84;1039430;28;20247;-77
2023/12/02 01:45:28;;;;;;;0.40;0.40;;;;;;;-1.70;100.00;94366.53;1022442;28;20034;-80
2023/12/02 01:45:59;;;;;;;0.57;0.57;;;;;;;-1.69;100.00;94368.09;1022958;29;20027;-79
2023/12/02 01:46:29;;;;;;;0.50;0.50;;;;;;;-1.69;100.00;94367.31;1026021;28;20046;-79
2023/12/02 01:47:00;;;;;;;0.45;0.45;;;;;;;-1.64;100.00;94377.72;1031024;28;20026;-79
2023/12/02 01:47:31;;;;;;;1.92;1.76;;;;;;;-1.73;100.00;94368.75;1038990;28;20017;-77
2023/12/02 01:48:02;;;;;;;1.77;1.67;;;;;;;-1.72;100.00;94367.75;1034968;28;20498;-78
2023/12/02 01:48:34;;;;;;;0.55;0.55;;;;;;;-1.75;100.00;94379.25;1034715;28;20083;-80
2023/12/02 01:49:06;;;;;;;1.66;1.56;;;;;;;-1.75;100.00;94379.25;1035086;28;20014;-79
2023/12/02 01:49:37;;;;;;;1.36;1.26;;;;;;;-1.98;100.00;94354.28;1026547;28;20450;-78
2023/12/02 01:50:08;;;;;;;0.47;0.47;;;;;;;-1.81;100.00;94380.16;1027059;28;20058;-78
2023/12/02 01:50:38;;;;;;;1.74;1.16;;;;;;;-1.91;100.00;94356.75;1027504;28;20046;-79
2023/12/02 01:51:09;;;;;;;1.60;1.50;;;;;;;-1.76;100.00;94377.69;1031367;28;20161;-78
2023/12/02 01:51:40;;;;;;;2.42;2.28;;;;;;;-1.81;100.00;94375.00;1030532;28;20214;-79
2023/12/02 01:52:10;;;;;;;1.10;1.10;;;;;;;-1.75;100.00;94384.38;1030138;28;20105;-80
2023/12/02 01:52:41;;;;;;;1.45;1.42;;;;;;;-1.79;100.00;94367.06;1038472;28;20022;-79
2023/12/02 01:53:11;;;;;;;1.15;1.10;;;;;;;-1.73;100.00;94376.47;1030838;28;20065;-79
2023/12/02 01:53:42;;;;;;;1.98;1.88;;;;;;;-1.79;100.00;94369.63;1038530;28;20032;-78
2023/12/02 01:54:12;;;;;;;1.75;1.02;;;;;;;-1.80;100.00;94371.41;1030551;28;20018;-79
2023/12/02 01:54:43;;;;;;;0.17;0.17;;;;;;;-1.86;100.00;94364.59;1022495;28;20075;-78
2023/12/02 01:55:13;;;;;;;1.00;1.00;;;;;;;-1.75;100.00;94379.25;1030865;28;20025;-79
2023/12/02 01:55:44;;;;;;;0.85;0.85;;;;;;;-1.72;100.00;94383.94;1030536;28;20015;-79
2023/12/02 01:56:15;;;;;;;2.13;0.68;;;;;;;-1.82;100.00;94370.84;1040002;28;20072;-78
2023/12/02 01:56:46;;;;;;;0.32;0.32;;;;;;;-1.82;100.00;94367.50;1039129;28;20021;-79
2023/12/02 01:57:16;;;;;;;2.40;1.83;;;;;;;-1.86;100.00;94372.28;1032010;28;20029;-79
2023/12/02 01:57:47;;;;;;;0.57;0.57;;;;;;;-1.97;100.00;94357.63;1031226;28;20121;-79
2023/12/02 01:58:18;;;;;;;6.22;1.13;;;;;;;-1.87;100.00;94363.03;1031549;28;20107;-78
2023/12/02 01:58:48;;;;;;;1.08;1.08;;;;;;;-1.80;100.00;94383.50;1039527;28;20029;-79
2023/12/02 01:59:19;;;;;;;1.02;0.93;;;;;;;-1.85;100.00;94373.84;1035317;28;20699;-78
2023/12/02 01:59:53;;;;;;;0.52;0.52;;;;;;;-1.82;100.00;94381.13;1031301;28;20089;-78
2023/12/02 02:00:24;;;;;;;0.68;0.68;;;;;;;-1.81;100.00;94381.91;1033701;28;20080;-78
2023/12/02 02:00:54;;;;;;;0.93;0.47;;;;;;;-1.85;100.00;94389.28;1039344;28;20447;-79
2023/12/02 02:01:24;;;;;;;1.25;1.20;;;;;;;-1.93;100.00;94372.38;1039417;28;20148;-78
2023/12/02 02:01:56;;;;;;;2.88;1.48;;;;;;;-1.84;100.00;94383.16;1026681;28;20534;-78
2023/12/02 02:02:26;;;;;;;0.66;0.66;;;;;;;-1.80;100.00;94381.72;1027201;28;20033;-78
2023/12/02 02:02:57;;;;;;;0.10;0.10;;;;;;;-1.85;100.00;94375.66;1027657;28;20041;-79
2023/12/02 02:03:27;;;;;;;0.55;0.55;;;;;;;-1.83;100.00;94382.13;1031395;28;20018;-78
2023/12/02 02:03:59;;;;;;;2.88;2.65;;;;;;;-1.86;100.00;94372.28;1034063;28;20041;-80
2023/12/02 02:04:29;;;;;;;1.76;1.66;;;;;;;-1.92;100.00;94368.81;1031289;28;20018;-78
2023/12/02 02:05:00;;;;;;;0.77;0.77;;;;;;;-1.90;100.00;94376.31;1039062;28;20429;-77
2023/12/02 02:05:30;;;;;;;0.32;0.32;;;;;;;-1.82;100.00;94382.91;1043647;28;20009;-79
2023/12/02 02:06:00;;;;;;;0.65;0.65;;;;;;;-1.85;100.00;94386.69;1035359;28;20014;-79
2023/12/02 02:06:31;;;;;;;1.45;1.27;;;;;;;-1.83;100.00;94379.56;1031234;28;20875;-79
2023/12/02 02:07:03;;;;;;;1.30;1.20;;;;;;;-1.80;100.00;94386.84;1043420;28;20174;-78
2023/12/02 02:07:33;;;;;;;2.72;1.42;;;;;;;-1.81;100.00;94379.34;1031086;28;20482;-78
2023/12/02 02:08:04;;;;;;;0.45;0.43;;;;;;;-1.78;100.00;94387.41;1039564;28;20116;-79
2023/12/02 02:08:34;;;;;;;1.15;1.15;;;;;;;-1.85;100.00;94384.13;1027281;28;20050;-78
2023/12/02 02:09:05;;;;;;;3.72;1.25;;;;;;;-1.85;100.00;94378.22;1038871;28;20023;-78
2023/12/02 02:09:47;;;;;;;1.65;1.55;;;;;;;-1.80;100.00;94381.72;1031468;28;20449;-78
2023/12/02 02:10:20;;;;;;;2.50;1.40;;;;;;;-1.82;100.00;94383.69;1027256;28;20442;-78
2023/12/02 02:10:57;;;;;;;2.40;2.10;;;;;;;-1.86;100.00;94377.44;1027183;28;20042;-79
2023/12/02 02:11:28;;;;;;;0.30;0.30;;;;;;;-1.85;100.00;94379.00;1031104;28;20030;-79
2023/12/02 02:11:58;;;;;;;2.60;0.93;;;;;;;-1.81;100.00;94385.28;1034648;28;20022;-80
2023/12/02 02:12:29;;;;;;;0.57;0.50;;;;;;;-1.84;100.00;94393.44;1035422;28;20081;-78
2023/12/02 02:12:59;;;;;;;1.77;0.80;;;;;;;-1.86;100.00;94387.72;1035154;28;20108;-78
2023/12/02 02:13:30;;;;;;;0.25;0.25;;;;;;;-1.88;100.00;94387.13;1023092;28;20035;-78
2023/12/02 02:14:01;;;;;;;1.30;1.20;;;;;;;-1.92;100.00;94380.88;1035061;28;20156;-79
2023/12/02 02:14:31;;;;;;;0.63;0.63;;;;;;;-1.89;100.00;94375.28;1031320;28;20557;-78
2023/12/02 02:15:02;;;;;;;1.13;1.02;;;;;;;-1.82;100.00;94378.56;1035545;28;20034;-78
2023/12/02 02:15:32;;;;;;;0.73;0.73;;;;;;;-1.84;100.00;94379.81;1030230;28;21125;-79
2023/12/02 02:16:03;;;;;;;4.35;1.42;;;;;;;-1.91;100.00;94369.59;1031163;28;20014;-78
2023/12/02 02:16:33;;;;;;;0.45;0.45;;;;;;;-1.80;100.00;94375.78;1027895;28;20026;-79
2023/12/02 02:17:04;;;;;;;0.85;0.80;;;;;;;-1.96;100.00;94359.19;1031124;28;20026;-79
2023/12/02 02:17:34;;;;;;;1.55;0.82;;;;;;;-1.87;100.00;94370.72;1032041;28;20027;-79
2023/12/02 02:18:05;;;;;;;1.75;0.90;;;;;;;-1.87;100.00;94373.31;1035626;28;20022;-79
2023/12/02 02:18:36;;;;;;;1.48;1.38;;;;;;;-1.86;100.00;94374.09;1028946;28;20018;-78
2023/12/02 02:19:07;;;;;;;2.48;2.34;;;;;;;-1.99;100.00;94367.34;1039385;28;20073;-78
2023/12/02 02:19:37;;;;;;;0.00;0.00;;;;;;;-2.06;100.00;94359.72;1027008;28;20027;-79
2023/12/02 02:20:08;;;;;;;2.10;1.88;;;;;;;-1.92;100.00;94379.09;1027469;28;20418;-79
2023/12/02 02:20:39;;;;;;;2.88;2.63;;;;;;;-1.88;100.00;94383.78;1039508;28;20029;-78
2023/12/02 02:21:09;;;;;;;0.47;0.47;;;;;;;-1.91;100.00;94383.25;1035356;28;20496;-79
2023/12/02 02:21:40;;;;;;;1.02;0.80;;;;;;;-1.85;100.00;94393.63;1031261;28;20403;-79
2023/12/02 02:22:10;;;;;;;1.25;1.20;;;;;;;-1.91;100.00;94380.66;1035173;28;20064;-79